sensor_id;sensor_type;location;lat;lon;timestamp;P1;durP1;ratioP1;P2;durP2;ratioP2
75700;SDS011;64321;48.796;44.740;2023-05-24T00:02:51;64.00;;;37.50;;
75700;SDS011;64321;48.796;44.740;2023-05-24T00:07:54;63.88;;;37.38;;
75700;SDS011;64321;48.796;44.740;2023-05-24T00:12:56;63.33;;;36.58;;
75700;SDS011;64321;48.796;44.740;2023-05-24T00:17:59;77.38;;;45.20;;
75700;SDS011;64321;48.796;44.740;2023-05-24T00:23:01;79.25;;;43.90;;
75700;SDS011;64321;48.796;44.740;2023-05-24T00:28:03;84.05;;;50.97;;
75700;SDS011;64321;48.796;44.740;2023-05-24T00:33:06;83.72;;;48.92;;
75700;SDS011;64321;48.796;44.740;2023-05-24T00:38:08;89.05;;;52.33;;
75700;SDS011;64321;48.796;44.740;2023-05-24T00:43:10;94.40;;;57.38;;
75700;SDS011;64321;48.796;44.740;2023-05-24T00:48:13;99.18;;;57.90;;
75700;SDS011;64321;48.796;44.740;2023-05-24T00:53:15;73.40;;;42.20;;
75700;SDS011;64321;48.796;44.740;2023-05-24T00:58:18;63.60;;;33.63;;
75700;SDS011;64321;48.796;44.740;2023-05-24T01:03:20;65.97;;;33.35;;
75700;SDS011;64321;48.796;44.740;2023-05-24T01:13:26;49.95;;;24.92;;
75700;SDS011;64321;48.796;44.740;2023-05-24T01:18:32;48.60;;;24.73;;
75700;SDS011;64321;48.796;44.740;2023-05-24T01:28:37;38.10;;;22.25;;
75700;SDS011;64321;48.796;44.740;2023-05-24T01:33:40;43.30;;;23.63;;
75700;SDS011;64321;48.796;44.740;2023-05-24T01:38:43;42.53;;;22.27;;
75700;SDS011;64321;48.796;44.740;2023-05-24T01:43:59;45.78;;;23.10;;
75700;SDS011;64321;48.796;44.740;2023-05-24T01:49:25;35.35;;;19.15;;
75700;SDS011;64321;48.796;44.740;2023-05-24T01:54:30;38.20;;;21.85;;
75700;SDS011;64321;48.796;44.740;2023-05-24T01:59:33;39.05;;;21.88;;
75700;SDS011;64321;48.796;44.740;2023-05-24T02:04:36;34.60;;;18.83;;
75700;SDS011;64321;48.796;44.740;2023-05-24T02:09:38;33.15;;;16.88;;
75700;SDS011;64321;48.796;44.740;2023-05-24T02:14:41;32.15;;;16.35;;
75700;SDS011;64321;48.796;44.740;2023-05-24T02:19:43;31.75;;;17.05;;
75700;SDS011;64321;48.796;44.740;2023-05-24T02:24:46;28.48;;;16.33;;
75700;SDS011;64321;48.796;44.740;2023-05-24T02:29:49;31.13;;;16.65;;
75700;SDS011;64321;48.796;44.740;2023-05-24T02:34:51;29.45;;;16.58;;
75700;SDS011;64321;48.796;44.740;2023-05-24T02:39:53;36.78;;;18.48;;
75700;SDS011;64321;48.796;44.740;2023-05-24T02:44:56;32.63;;;18.30;;
75700;SDS011;64321;48.796;44.740;2023-05-24T02:49:58;32.63;;;17.48;;
75700;SDS011;64321;48.796;44.740;2023-05-24T02:55:00;28.27;;;16.58;;
75700;SDS011;64321;48.796;44.740;2023-05-24T03:00:04;35.33;;;17.50;;
75700;SDS011;64321;48.796;44.740;2023-05-24T03:05:12;31.73;;;16.15;;
75700;SDS011;64321;48.796;44.740;2023-05-24T03:10:14;33.03;;;18.17;;
75700;SDS011;64321;48.796;44.740;2023-05-24T03:15:18;30.92;;;17.80;;
75700;SDS011;64321;48.796;44.740;2023-05-24T03:20:20;27.88;;;16.17;;
75700;SDS011;64321;48.796;44.740;2023-05-24T03:25:25;27.33;;;15.00;;
75700;SDS011;64321;48.796;44.740;2023-05-24T03:30:28;25.73;;;14.75;;
75700;SDS011;64321;48.796;44.740;2023-05-24T03:35:33;26.85;;;14.60;;
75700;SDS011;64321;48.796;44.740;2023-05-24T03:40:35;26.83;;;16.02;;
75700;SDS011;64321;48.796;44.740;2023-05-24T03:45:50;28.75;;;15.10;;
75700;SDS011;64321;48.796;44.740;2023-05-24T03:50:53;27.83;;;15.93;;
75700;SDS011;64321;48.796;44.740;2023-05-24T03:55:55;26.05;;;15.05;;
75700;SDS011;64321;48.796;44.740;2023-05-24T04:00:57;29.02;;;14.40;;
75700;SDS011;64321;48.796;44.740;2023-05-24T04:06:00;24.33;;;15.18;;
75700;SDS011;64321;48.796;44.740;2023-05-24T04:11:02;22.95;;;12.30;;
75700;SDS011;64321;48.796;44.740;2023-05-24T04:16:04;22.85;;;12.13;;
75700;SDS011;64321;48.796;44.740;2023-05-24T04:21:10;21.13;;;10.50;;
75700;SDS011;64321;48.796;44.740;2023-05-24T04:26:13;20.15;;;13.20;;
75700;SDS011;64321;48.796;44.740;2023-05-24T04:31:15;17.60;;;10.32;;
75700;SDS011;64321;48.796;44.740;2023-05-24T04:36:17;18.48;;;9.32;;
75700;SDS011;64321;48.796;44.740;2023-05-24T04:41:20;14.50;;;8.73;;
75700;SDS011;64321;48.796;44.740;2023-05-24T04:46:23;18.63;;;10.45;;
75700;SDS011;64321;48.796;44.740;2023-05-24T04:51:25;13.50;;;8.07;;
75700;SDS011;64321;48.796;44.740;2023-05-24T04:56:28;18.25;;;8.90;;
75700;SDS011;64321;48.796;44.740;2023-05-24T05:01:30;19.60;;;9.45;;
75700;SDS011;64321;48.796;44.740;2023-05-24T05:06:33;17.73;;;8.50;;
75700;SDS011;64321;48.796;44.740;2023-05-24T05:11:40;19.25;;;8.95;;
75700;SDS011;64321;48.796;44.740;2023-05-24T05:16:42;18.27;;;8.63;;
75700;SDS011;64321;48.796;44.740;2023-05-24T05:21:46;21.67;;;9.07;;
75700;SDS011;64321;48.796;44.740;2023-05-24T05:26:49;16.52;;;9.02;;
75700;SDS011;64321;48.796;44.740;2023-05-24T05:31:51;16.35;;;8.10;;
75700;SDS011;64321;48.796;44.740;2023-05-24T05:36:53;17.83;;;9.60;;
75700;SDS011;64321;48.796;44.740;2023-05-24T05:41:56;18.33;;;8.55;;
75700;SDS011;64321;48.796;44.740;2023-05-24T05:46:58;19.55;;;9.85;;
75700;SDS011;64321;48.796;44.740;2023-05-24T05:52:03;17.20;;;8.15;;
75700;SDS011;64321;48.796;44.740;2023-05-24T05:57:06;21.63;;;8.20;;
75700;SDS011;64321;48.796;44.740;2023-05-24T06:02:12;13.45;;;7.53;;
75700;SDS011;64321;48.796;44.740;2023-05-24T06:07:14;18.48;;;8.48;;
75700;SDS011;64321;48.796;44.740;2023-05-24T06:12:16;14.75;;;7.85;;
75700;SDS011;64321;48.796;44.740;2023-05-24T06:17:19;15.32;;;7.20;;
75700;SDS011;64321;48.796;44.740;2023-05-24T06:22:25;12.45;;;7.80;;
75700;SDS011;64321;48.796;44.740;2023-05-24T06:27:30;15.15;;;7.90;;
75700;SDS011;64321;48.796;44.740;2023-05-24T06:32:33;13.40;;;7.53;;
75700;SDS011;64321;48.796;44.740;2023-05-24T06:37:35;12.10;;;7.65;;
75700;SDS011;64321;48.796;44.740;2023-05-24T06:42:39;13.60;;;8.80;;
75700;SDS011;64321;48.796;44.740;2023-05-24T06:47:41;14.55;;;7.35;;
75700;SDS011;64321;48.796;44.740;2023-05-24T06:52:44;14.00;;;6.82;;
75700;SDS011;64321;48.796;44.740;2023-05-24T06:57:46;13.55;;;7.05;;
75700;SDS011;64321;48.796;44.740;2023-05-24T07:02:48;13.75;;;7.05;;
75700;SDS011;64321;48.796;44.740;2023-05-24T07:07:51;11.70;;;6.78;;
75700;SDS011;64321;48.796;44.740;2023-05-24T07:12:53;11.90;;;6.28;;
75700;SDS011;64321;48.796;44.740;2023-05-24T07:17:56;10.80;;;6.15;;
75700;SDS011;64321;48.796;44.740;2023-05-24T07:22:59;14.15;;;6.45;;
75700;SDS011;64321;48.796;44.740;2023-05-24T07:28:02;13.43;;;5.90;;
75700;SDS011;64321;48.796;44.740;2023-05-24T07:33:04;12.27;;;5.22;;
75700;SDS011;64321;48.796;44.740;2023-05-24T07:38:06;9.20;;;5.07;;
75700;SDS011;64321;48.796;44.740;2023-05-24T07:43:09;9.20;;;4.97;;
75700;SDS011;64321;48.796;44.740;2023-05-24T07:48:11;14.75;;;5.90;;
75700;SDS011;64321;48.796;44.740;2023-05-24T07:53:14;9.60;;;5.15;;
75700;SDS011;64321;48.796;44.740;2023-05-24T07:58:16;10.75;;;5.00;;
75700;SDS011;64321;48.796;44.740;2023-05-24T08:03:18;8.98;;;4.65;;
75700;SDS011;64321;48.796;44.740;2023-05-24T08:08:21;9.68;;;5.05;;
75700;SDS011;64321;48.796;44.740;2023-05-24T08:13:24;9.10;;;4.75;;
75700;SDS011;64321;48.796;44.740;2023-05-24T08:18:26;7.78;;;3.55;;
75700;SDS011;64321;48.796;44.740;2023-05-24T08:23:28;8.80;;;4.32;;
75700;SDS011;64321;48.796;44.740;2023-05-24T08:28:31;11.07;;;4.55;;
75700;SDS011;64321;48.796;44.740;2023-05-24T08:33:34;12.52;;;3.50;;
75700;SDS011;64321;48.796;44.740;2023-05-24T08:38:36;7.00;;;3.28;;
75700;SDS011;64321;48.796;44.740;2023-05-24T08:43:39;9.43;;;3.30;;
75700;SDS011;64321;48.796;44.740;2023-05-24T08:48:46;9.23;;;4.43;;
75700;SDS011;64321;48.796;44.740;2023-05-24T08:53:49;19.30;;;3.33;;
75700;SDS011;64321;48.796;44.740;2023-05-24T08:58:54;10.23;;;3.03;;
75700;SDS011;64321;48.796;44.740;2023-05-24T09:03:57;18.13;;;3.63;;
75700;SDS011;64321;48.796;44.740;2023-05-24T09:09:02;19.65;;;3.60;;
75700;SDS011;64321;48.796;44.740;2023-05-24T09:14:04;19.13;;;2.92;;
75700;SDS011;64321;48.796;44.740;2023-05-24T09:19:06;24.90;;;3.60;;
75700;SDS011;64321;48.796;44.740;2023-05-24T09:24:11;20.00;;;3.83;;
75700;SDS011;64321;48.796;44.740;2023-05-24T09:29:13;23.15;;;3.55;;
75700;SDS011;64321;48.796;44.740;2023-05-24T09:34:18;25.55;;;3.25;;
75700;SDS011;64321;48.796;44.740;2023-05-24T09:39:20;21.40;;;2.80;;
75700;SDS011;64321;48.796;44.740;2023-05-24T09:44:23;24.70;;;3.35;;
75700;SDS011;64321;48.796;44.740;2023-05-24T09:49:26;23.02;;;3.17;;
75700;SDS011;64321;48.796;44.740;2023-05-24T09:54:30;23.20;;;4.57;;
75700;SDS011;64321;48.796;44.740;2023-05-24T09:59:33;24.10;;;3.20;;
75700;SDS011;64321;48.796;44.740;2023-05-24T10:04:35;22.25;;;3.30;;
75700;SDS011;64321;48.796;44.740;2023-05-24T10:09:38;28.23;;;4.35;;
75700;SDS011;64321;48.796;44.740;2023-05-24T10:14:40;21.98;;;3.58;;
75700;SDS011;64321;48.796;44.740;2023-05-24T10:19:43;18.92;;;2.97;;
75700;SDS011;64321;48.796;44.740;2023-05-24T10:24:46;24.00;;;3.33;;
75700;SDS011;64321;48.796;44.740;2023-05-24T10:35:05;22.88;;;4.25;;
75700;SDS011;64321;48.796;44.740;2023-05-24T10:40:17;25.83;;;2.63;;
75700;SDS011;64321;48.796;44.740;2023-05-24T10:50:24;19.67;;;4.10;;
75700;SDS011;64321;48.796;44.740;2023-05-24T10:55:26;26.70;;;3.45;;
75700;SDS011;64321;48.796;44.740;2023-05-24T11:00:28;22.15;;;2.83;;
75700;SDS011;64321;48.796;44.740;2023-05-24T11:05:34;19.85;;;4.18;;
75700;SDS011;64321;48.796;44.740;2023-05-24T11:10:37;21.20;;;3.25;;
75700;SDS011;64321;48.796;44.740;2023-05-24T11:15:47;23.00;;;3.50;;
75700;SDS011;64321;48.796;44.740;2023-05-24T11:20:50;22.80;;;3.78;;
75700;SDS011;64321;48.796;44.740;2023-05-24T11:25:53;19.05;;;3.42;;
75700;SDS011;64321;48.796;44.740;2023-05-24T11:30:56;21.65;;;3.03;;
75700;SDS011;64321;48.796;44.740;2023-05-24T11:35:58;19.10;;;3.20;;
75700;SDS011;64321;48.796;44.740;2023-05-24T11:41:00;25.65;;;3.45;;
75700;SDS011;64321;48.796;44.740;2023-05-24T11:46:03;23.63;;;3.15;;
75700;SDS011;64321;48.796;44.740;2023-05-24T11:51:05;17.67;;;2.83;;
75700;SDS011;64321;48.796;44.740;2023-05-24T11:56:08;23.23;;;3.63;;
75700;SDS011;64321;48.796;44.740;2023-05-24T12:01:23;19.98;;;3.30;;
75700;SDS011;64321;48.796;44.740;2023-05-24T12:06:36;24.90;;;4.30;;
75700;SDS011;64321;48.796;44.740;2023-05-24T12:11:39;21.90;;;3.90;;
75700;SDS011;64321;48.796;44.740;2023-05-24T12:16:42;20.10;;;2.78;;
75700;SDS011;64321;48.796;44.740;2023-05-24T12:21:48;31.10;;;4.63;;
75700;SDS011;64321;48.796;44.740;2023-05-24T12:27:01;21.73;;;3.22;;
75700;SDS011;64321;48.796;44.740;2023-05-24T12:32:04;23.25;;;3.17;;
75700;SDS011;64321;48.796;44.740;2023-05-24T12:37:07;20.30;;;2.72;;
75700;SDS011;64321;48.796;44.740;2023-05-24T12:42:09;20.10;;;4.05;;
75700;SDS011;64321;48.796;44.740;2023-05-24T12:47:13;23.95;;;3.72;;
75700;SDS011;64321;48.796;44.740;2023-05-24T12:52:15;22.25;;;2.92;;
75700;SDS011;64321;48.796;44.740;2023-05-24T12:57:18;26.73;;;2.67;;
75700;SDS011;64321;48.796;44.740;2023-05-24T13:02:20;19.67;;;2.80;;
75700;SDS011;64321;48.796;44.740;2023-05-24T13:07:23;20.58;;;2.85;;
75700;SDS011;64321;48.796;44.740;2023-05-24T13:12:28;24.80;;;3.90;;
75700;SDS011;64321;48.796;44.740;2023-05-24T13:17:37;28.55;;;4.20;;
75700;SDS011;64321;48.796;44.740;2023-05-24T13:22:39;18.98;;;3.58;;
75700;SDS011;64321;48.796;44.740;2023-05-24T13:27:41;24.10;;;2.67;;
75700;SDS011;64321;48.796;44.740;2023-05-24T13:32:44;26.45;;;4.47;;
75700;SDS011;64321;48.796;44.740;2023-05-24T13:37:47;26.45;;;3.10;;
75700;SDS011;64321;48.796;44.740;2023-05-24T13:42:50;27.55;;;4.88;;
75700;SDS011;64321;48.796;44.740;2023-05-24T13:47:52;32.38;;;4.05;;
75700;SDS011;64321;48.796;44.740;2023-05-24T13:52:59;27.85;;;5.90;;
75700;SDS011;64321;48.796;44.740;2023-05-24T13:58:04;27.45;;;3.75;;
75700;SDS011;64321;48.796;44.740;2023-05-24T14:03:07;26.80;;;3.13;;
75700;SDS011;64321;48.796;44.740;2023-05-24T14:08:09;27.58;;;3.75;;
75700;SDS011;64321;48.796;44.740;2023-05-24T14:13:11;37.08;;;5.55;;
75700;SDS011;64321;48.796;44.740;2023-05-24T14:18:34;27.52;;;4.72;;
75700;SDS011;64321;48.796;44.740;2023-05-24T14:23:36;30.85;;;5.25;;
75700;SDS011;64321;48.796;44.740;2023-05-24T14:28:38;36.88;;;4.35;;
75700;SDS011;64321;48.796;44.740;2023-05-24T14:33:40;38.53;;;4.72;;
75700;SDS011;64321;48.796;44.740;2023-05-24T14:38:43;35.10;;;4.10;;
75700;SDS011;64321;48.796;44.740;2023-05-24T14:43:45;29.67;;;4.32;;
75700;SDS011;64321;48.796;44.740;2023-05-24T14:48:47;30.95;;;5.07;;
75700;SDS011;64321;48.796;44.740;2023-05-24T14:53:50;32.33;;;5.03;;
75700;SDS011;64321;48.796;44.740;2023-05-24T14:58:52;37.10;;;5.13;;
75700;SDS011;64321;48.796;44.740;2023-05-24T15:03:57;26.00;;;5.35;;
75700;SDS011;64321;48.796;44.740;2023-05-24T15:09:00;35.28;;;6.72;;
75700;SDS011;64321;48.796;44.740;2023-05-24T15:14:03;34.60;;;5.20;;
75700;SDS011;64321;48.796;44.740;2023-05-24T15:19:06;35.17;;;4.93;;
75700;SDS011;64321;48.796;44.740;2023-05-24T15:24:09;29.40;;;4.72;;
75700;SDS011;64321;48.796;44.740;2023-05-24T15:29:12;30.77;;;4.65;;
75700;SDS011;64321;48.796;44.740;2023-05-24T15:34:14;28.30;;;5.38;;
75700;SDS011;64321;48.796;44.740;2023-05-24T15:39:17;27.58;;;4.95;;
75700;SDS011;64321;48.796;44.740;2023-05-24T15:44:19;38.22;;;5.88;;
75700;SDS011;64321;48.796;44.740;2023-05-24T15:49:22;39.17;;;5.80;;
75700;SDS011;64321;48.796;44.740;2023-05-24T15:54:24;36.42;;;5.43;;
75700;SDS011;64321;48.796;44.740;2023-05-24T15:59:27;40.55;;;7.13;;
75700;SDS011;64321;48.796;44.740;2023-05-24T16:04:29;34.60;;;6.40;;
75700;SDS011;64321;48.796;44.740;2023-05-24T16:09:31;38.00;;;8.20;;
75700;SDS011;64321;48.796;44.740;2023-05-24T16:14:34;50.45;;;16.83;;
75700;SDS011;64321;48.796;44.740;2023-05-24T16:19:36;48.40;;;15.85;;
75700;SDS011;64321;48.796;44.740;2023-05-24T16:24:39;49.70;;;14.82;;
75700;SDS011;64321;48.796;44.740;2023-05-24T16:29:41;41.63;;;7.20;;
75700;SDS011;64321;48.796;44.740;2023-05-24T16:34:43;37.30;;;8.63;;
75700;SDS011;64321;48.796;44.740;2023-05-24T16:39:53;39.35;;;7.55;;
75700;SDS011;64321;48.796;44.740;2023-05-24T16:44:55;34.55;;;6.65;;
75700;SDS011;64321;48.796;44.740;2023-05-24T16:49:57;39.42;;;8.85;;
75700;SDS011;64321;48.796;44.740;2023-05-24T16:54:59;40.45;;;8.57;;
75700;SDS011;64321;48.796;44.740;2023-05-24T17:00:04;45.25;;;8.13;;
75700;SDS011;64321;48.796;44.740;2023-05-24T17:05:07;42.30;;;7.95;;
75700;SDS011;64321;48.796;44.740;2023-05-24T17:10:09;45.50;;;8.07;;
75700;SDS011;64321;48.796;44.740;2023-05-24T17:15:12;40.15;;;9.38;;
75700;SDS011;64321;48.796;44.740;2023-05-24T17:20:14;50.72;;;9.00;;
75700;SDS011;64321;48.796;44.740;2023-05-24T17:25:20;48.33;;;9.27;;
75700;SDS011;64321;48.796;44.740;2023-05-24T17:30:22;47.13;;;8.50;;
75700;SDS011;64321;48.796;44.740;2023-05-24T17:35:24;41.92;;;8.32;;
75700;SDS011;64321;48.796;44.740;2023-05-24T17:40:27;45.17;;;10.00;;
75700;SDS011;64321;48.796;44.740;2023-05-24T17:45:29;46.80;;;11.63;;
75700;SDS011;64321;48.796;44.740;2023-05-24T17:50:32;43.80;;;11.80;;
75700;SDS011;64321;48.796;44.740;2023-05-24T17:55:34;45.30;;;12.10;;
75700;SDS011;64321;48.796;44.740;2023-05-24T18:00:36;39.17;;;10.55;;
75700;SDS011;64321;48.796;44.740;2023-05-24T18:05:39;52.53;;;12.30;;
75700;SDS011;64321;48.796;44.740;2023-05-24T18:10:41;46.58;;;10.52;;
75700;SDS011;64321;48.796;44.740;2023-05-24T18:15:44;40.33;;;11.27;;
75700;SDS011;64321;48.796;44.740;2023-05-24T18:20:46;46.45;;;9.45;;
75700;SDS011;64321;48.796;44.740;2023-05-24T18:25:49;38.88;;;9.13;;
75700;SDS011;64321;48.796;44.740;2023-05-24T18:31:02;46.92;;;10.65;;
75700;SDS011;64321;48.796;44.740;2023-05-24T18:36:04;38.78;;;11.25;;
75700;SDS011;64321;48.796;44.740;2023-05-24T18:41:07;43.55;;;12.65;;
75700;SDS011;64321;48.796;44.740;2023-05-24T18:46:11;37.38;;;8.05;;
75700;SDS011;64321;48.796;44.740;2023-05-24T18:51:14;46.92;;;13.05;;
75700;SDS011;64321;48.796;44.740;2023-05-24T18:56:17;39.15;;;10.20;;
75700;SDS011;64321;48.796;44.740;2023-05-24T19:01:19;30.42;;;7.60;;
75700;SDS011;64321;48.796;44.740;2023-05-24T19:06:21;39.38;;;10.27;;
75700;SDS011;64321;48.796;44.740;2023-05-24T19:11:24;46.00;;;10.00;;
75700;SDS011;64321;48.796;44.740;2023-05-24T19:16:27;43.97;;;8.32;;
75700;SDS011;64321;48.796;44.740;2023-05-24T19:21:31;40.88;;;7.63;;
75700;SDS011;64321;48.796;44.740;2023-05-24T19:26:34;37.53;;;5.78;;
75700;SDS011;64321;48.796;44.740;2023-05-24T19:31:36;31.90;;;7.18;;
75700;SDS011;64321;48.796;44.740;2023-05-24T19:36:39;18.33;;;6.18;;
75700;SDS011;64321;48.796;44.740;2023-05-24T19:41:41;24.20;;;7.07;;
75700;SDS011;64321;48.796;44.740;2023-05-24T19:46:43;25.10;;;8.20;;
75700;SDS011;64321;48.796;44.740;2023-05-24T19:51:46;15.05;;;5.03;;
75700;SDS011;64321;48.796;44.740;2023-05-24T19:56:48;21.92;;;5.80;;
75700;SDS011;64321;48.796;44.740;2023-05-24T20:01:52;20.38;;;6.47;;
75700;SDS011;64321;48.796;44.740;2023-05-24T20:06:55;22.52;;;6.22;;
75700;SDS011;64321;48.796;44.740;2023-05-24T20:11:57;25.50;;;6.78;;
75700;SDS011;64321;48.796;44.740;2023-05-24T20:17:00;15.20;;;5.38;;
75700;SDS011;64321;48.796;44.740;2023-05-24T20:22:03;20.90;;;6.07;;
75700;SDS011;64321;48.796;44.740;2023-05-24T20:27:05;16.85;;;6.13;;
75700;SDS011;64321;48.796;44.740;2023-05-24T20:32:07;17.67;;;4.70;;
75700;SDS011;64321;48.796;44.740;2023-05-24T20:37:10;20.73;;;5.60;;
75700;SDS011;64321;48.796;44.740;2023-05-24T20:42:12;17.98;;;6.10;;
75700;SDS011;64321;48.796;44.740;2023-05-24T20:47:14;17.30;;;6.22;;
75700;SDS011;64321;48.796;44.740;2023-05-24T20:52:19;23.40;;;6.93;;
75700;SDS011;64321;48.796;44.740;2023-05-24T20:57:21;16.67;;;6.55;;
75700;SDS011;64321;48.796;44.740;2023-05-24T21:02:24;15.70;;;7.13;;
75700;SDS011;64321;48.796;44.740;2023-05-24T21:07:29;24.23;;;7.68;;
75700;SDS011;64321;48.796;44.740;2023-05-24T21:12:33;16.75;;;7.70;;
75700;SDS011;64321;48.796;44.740;2023-05-24T21:17:35;13.52;;;6.35;;
75700;SDS011;64321;48.796;44.740;2023-05-24T21:22:38;13.30;;;6.28;;
75700;SDS011;64321;48.796;44.740;2023-05-24T21:27:41;15.27;;;7.25;;
75700;SDS011;64321;48.796;44.740;2023-05-24T21:32:43;13.82;;;4.80;;
75700;SDS011;64321;48.796;44.740;2023-05-24T21:37:45;10.05;;;4.90;;
75700;SDS011;64321;48.796;44.740;2023-05-24T21:42:48;12.10;;;5.85;;
75700;SDS011;64321;48.796;44.740;2023-05-24T21:47:50;12.75;;;5.80;;
75700;SDS011;64321;48.796;44.740;2023-05-24T21:52:53;15.82;;;6.40;;
75700;SDS011;64321;48.796;44.740;2023-05-24T21:57:55;15.10;;;6.35;;
75700;SDS011;64321;48.796;44.740;2023-05-24T22:02:57;14.55;;;5.93;;
75700;SDS011;64321;48.796;44.740;2023-05-24T22:08:00;10.25;;;5.57;;
75700;SDS011;64321;48.796;44.740;2023-05-24T22:13:03;14.05;;;5.93;;
75700;SDS011;64321;48.796;44.740;2023-05-24T22:18:05;15.60;;;5.22;;
75700;SDS011;64321;48.796;44.740;2023-05-24T22:23:09;15.65;;;6.93;;
75700;SDS011;64321;48.796;44.740;2023-05-24T22:28:13;12.27;;;4.75;;
75700;SDS011;64321;48.796;44.740;2023-05-24T22:33:15;12.93;;;4.47;;
75700;SDS011;64321;48.796;44.740;2023-05-24T22:38:18;18.23;;;4.53;;
75700;SDS011;64321;48.796;44.740;2023-05-24T22:43:20;11.43;;;4.35;;
75700;SDS011;64321;48.796;44.740;2023-05-24T22:48:22;10.82;;;5.53;;
75700;SDS011;64321;48.796;44.740;2023-05-24T22:53:27;10.00;;;5.00;;
75700;SDS011;64321;48.796;44.740;2023-05-24T22:58:29;12.27;;;4.32;;
75700;SDS011;64321;48.796;44.740;2023-05-24T23:03:32;9.00;;;4.05;;
75700;SDS011;64321;48.796;44.740;2023-05-24T23:08:34;15.50;;;4.18;;
75700;SDS011;64321;48.796;44.740;2023-05-24T23:13:36;13.43;;;4.13;;
75700;SDS011;64321;48.796;44.740;2023-05-24T23:18:39;9.93;;;3.85;;
75700;SDS011;64321;48.796;44.740;2023-05-24T23:23:43;12.43;;;4.55;;
75700;SDS011;64321;48.796;44.740;2023-05-24T23:28:47;8.52;;;4.80;;
75700;SDS011;64321;48.796;44.740;2023-05-24T23:33:49;11.18;;;3.97;;
75700;SDS011;64321;48.796;44.740;2023-05-24T23:38:51;8.48;;;4.10;;
75700;SDS011;64321;48.796;44.740;2023-05-24T23:43:54;8.82;;;4.43;;
75700;SDS011;64321;48.796;44.740;2023-05-24T23:48:56;11.43;;;4.63;;
75700;SDS011;64321;48.796;44.740;2023-05-24T23:53:59;12.68;;;4.03;;
75700;SDS011;64321;48.796;44.740;2023-05-24T23:59:01;14.38;;;3.67;;
